createdAt,value
2022-12-20T00:01:25.344Z,1.37
2022-12-20T00:03:53.598Z,1.70
2022-12-20T00:06:21.641Z,1.63
2022-12-20T00:08:53.879Z,1.30
2022-12-20T00:11:23.701Z,1.83
2022-12-20T00:13:50.947Z,1.30
2022-12-20T00:16:25.874Z,1.83
2022-12-20T00:19:01.137Z,1.33
2022-12-20T00:21:29.937Z,1.57
2022-12-20T00:23:57.400Z,1.27
2022-12-20T00:26:29.817Z,1.30
2022-12-20T00:28:57.561Z,1.53
2022-12-20T00:31:25.757Z,1.37
2022-12-20T00:33:54.552Z,1.67
2022-12-20T00:36:22.993Z,1.50
2022-12-20T00:38:51.908Z,1.37
2022-12-20T00:41:21.738Z,1.43
2022-12-20T00:43:49.149Z,1.30
2022-12-20T00:46:17.706Z,1.33
2022-12-20T00:48:44.754Z,1.70
2022-12-20T00:51:14.421Z,1.50
2022-12-20T00:53:41.670Z,1.60
2022-12-20T00:56:09.279Z,1.40
2022-12-20T00:58:38.586Z,1.50
2022-12-20T01:01:14.332Z,0.97
2022-12-20T01:03:41.176Z,1.43
2022-12-20T01:06:08.233Z,1.67
2022-12-20T01:08:35.012Z,1.40
2022-12-20T01:11:13.731Z,1.30
2022-12-20T01:13:44.024Z,1.40
2022-12-20T01:16:41.134Z,1.60
2022-12-20T01:19:10.456Z,1.53
2022-12-20T01:21:38.248Z,1.10
2022-12-20T01:24:05.617Z,1.30
2022-12-20T01:26:32.309Z,1.40
2022-12-20T01:29:00.632Z,1.40
2022-12-20T01:31:28.953Z,1.53
2022-12-20T01:33:55.816Z,1.20
2022-12-20T01:36:25.371Z,1.10
2022-12-20T01:39:03.711Z,1.27
2022-12-20T01:41:32.052Z,0.97
2022-12-20T01:44:05.659Z,1.00
2022-12-20T01:46:39.680Z,1.73
2022-12-20T01:49:17.387Z,1.17
2022-12-20T01:51:56.504Z,1.23
2022-12-20T01:54:48.934Z,1.07
2022-12-20T01:57:26.622Z,1.90
2022-12-20T01:59:55.409Z,1.40
2022-12-20T02:02:22.904Z,1.30
2022-12-20T02:04:49.717Z,1.27
2022-12-20T02:07:21.981Z,1.00
2022-12-20T02:09:49.969Z,1.30
2022-12-20T02:12:21.532Z,1.70
2022-12-20T02:14:54.159Z,1.30
2022-12-20T02:17:52.182Z,1.30
2022-12-20T02:20:18.907Z,1.50
2022-12-20T02:23:19.007Z,1.10
2022-12-20T02:26:23.487Z,1.53
2022-12-20T02:29:33.861Z,1.43
2022-12-20T02:32:08.519Z,1.80
2022-12-20T02:34:37.608Z,1.30
2022-12-20T02:37:04.792Z,1.47
2022-12-20T02:39:32.936Z,1.60
2022-12-20T02:42:07.724Z,1.27
2022-12-20T02:44:56.334Z,1.50
2022-12-20T02:47:40.570Z,1.37
2022-12-20T02:50:08.995Z,2.13
2022-12-20T02:52:36.561Z,1.80
2022-12-20T02:55:04.863Z,1.20
2022-12-20T02:57:59.692Z,1.80
2022-12-20T03:00:32.560Z,1.67
2022-12-20T03:03:18.378Z,1.27
2022-12-20T03:05:47.552Z,1.53
2022-12-20T03:08:14.270Z,1.50
2022-12-20T03:10:41.374Z,1.30
2022-12-20T03:13:08.170Z,1.93
2022-12-20T03:15:35.249Z,1.57
2022-12-20T03:18:02.842Z,1.60
2022-12-20T03:20:29.922Z,1.63
2022-12-20T03:22:56.622Z,1.53
2022-12-20T03:25:26.849Z,1.70
2022-12-20T03:27:53.730Z,1.43
2022-12-20T03:30:20.652Z,1.80
2022-12-20T03:32:47.386Z,1.77
2022-12-20T03:35:14.265Z,1.37
2022-12-20T03:37:41.088Z,1.57
2022-12-20T03:40:08.855Z,3.10
2022-12-20T03:42:36.362Z,2.30
2022-12-20T03:45:04.251Z,1.90
2022-12-20T03:47:31.011Z,2.17
2022-12-20T03:49:57.775Z,2.30
2022-12-20T03:52:24.540Z,1.60
2022-12-20T03:54:51.367Z,2.03
2022-12-20T03:57:18.111Z,2.27
2022-12-20T03:59:44.853Z,1.97
2022-12-20T04:02:11.710Z,1.97
2022-12-20T04:04:38.538Z,1.83
2022-12-20T04:07:05.240Z,1.63
2022-12-20T04:09:31.979Z,2.10
2022-12-20T04:11:58.695Z,1.80
2022-12-20T04:14:25.406Z,2.00
2022-12-20T04:16:52.280Z,2.20
2022-12-20T04:19:19.006Z,3.77
2022-12-20T04:21:46.012Z,2.43
2022-12-20T04:24:12.731Z,3.33
2022-12-20T04:26:39.432Z,2.20
2022-12-20T04:29:06.209Z,2.30
2022-12-20T04:31:32.958Z,2.57
2022-12-20T04:33:59.707Z,2.33
2022-12-20T04:36:26.622Z,1.80
2022-12-20T04:38:54.123Z,2.20
2022-12-20T04:41:23.830Z,2.40
2022-12-20T04:43:52.313Z,2.60
2022-12-20T04:46:19.976Z,2.30
2022-12-20T04:48:57.189Z,2.10
2022-12-20T04:51:25.782Z,2.90
2022-12-20T04:53:52.676Z,2.63
2022-12-20T04:56:21.244Z,2.30
2022-12-20T04:58:50.867Z,2.60
2022-12-20T05:01:19.087Z,3.17
2022-12-20T05:03:47.223Z,2.37
2022-12-20T05:06:14.658Z,2.17
2022-12-20T05:08:41.850Z,2.33
2022-12-20T05:11:09.089Z,2.40
2022-12-20T05:13:36.162Z,2.30
2022-12-20T05:16:03.857Z,2.60
2022-12-20T05:18:30.730Z,2.63
2022-12-20T05:21:17.793Z,2.43
2022-12-20T05:24:03.072Z,2.97
2022-12-20T05:26:32.024Z,2.10
2022-12-20T05:28:58.777Z,2.40
2022-12-20T05:31:25.593Z,2.47
2022-12-20T05:33:52.376Z,2.20
2022-12-20T05:36:19.073Z,2.17
2022-12-20T05:38:46.386Z,2.40
2022-12-20T05:41:13.159Z,2.50
2022-12-20T05:43:40.478Z,2.03
2022-12-20T05:46:08.031Z,2.73
2022-12-20T05:48:34.810Z,2.87
2022-12-20T05:51:02.190Z,2.40
2022-12-20T05:53:28.986Z,1.83
2022-12-20T05:55:55.877Z,2.13
2022-12-20T05:58:22.821Z,2.70
2022-12-20T06:00:49.979Z,2.10
2022-12-20T06:03:17.437Z,2.00
2022-12-20T06:05:44.788Z,1.73
2022-12-20T06:08:12.356Z,3.93
2022-12-20T06:10:40.886Z,2.20
2022-12-20T06:13:08.726Z,2.13
2022-12-20T06:15:35.691Z,2.77
2022-12-20T06:18:02.471Z,2.23
2022-12-20T06:20:29.788Z,2.60
2022-12-20T06:22:56.577Z,3.20
2022-12-20T06:25:23.514Z,2.40
2022-12-20T06:27:50.280Z,2.63
2022-12-20T06:30:18.032Z,2.63
2022-12-20T06:32:44.839Z,2.20
2022-12-20T06:35:12.103Z,2.70
2022-12-20T06:37:40.672Z,2.17
2022-12-20T06:40:12.614Z,1.90
2022-12-20T06:42:39.873Z,2.17
2022-12-20T06:45:07.242Z,2.43
2022-12-20T06:47:33.972Z,2.27
2022-12-20T06:50:00.657Z,2.77
2022-12-20T06:52:27.480Z,4.10
2022-12-20T06:54:54.557Z,2.30
2022-12-20T06:57:21.641Z,2.50
2022-12-20T06:59:48.477Z,1.90
2022-12-20T07:02:15.586Z,2.40
2022-12-20T07:04:42.824Z,2.10
2022-12-20T07:07:09.715Z,2.10
2022-12-20T07:09:37.939Z,2.07
2022-12-20T07:12:05.428Z,1.90
2022-12-20T07:14:32.311Z,2.50
2022-12-20T07:16:59.271Z,2.00
2022-12-20T07:19:26.263Z,2.07
2022-12-20T07:21:52.960Z,2.10
2022-12-20T07:24:20.020Z,2.13
2022-12-20T07:26:46.797Z,1.70
2022-12-20T07:29:16.062Z,1.80
2022-12-20T07:31:43.132Z,1.80
2022-12-20T07:34:10.983Z,1.40
2022-12-20T07:36:37.967Z,6.57
2022-12-20T07:39:04.803Z,2.00
2022-12-20T07:41:31.635Z,1.63
2022-12-20T07:43:59.652Z,1.73
2022-12-20T07:46:26.840Z,1.73
2022-12-20T07:48:53.755Z,1.77
2022-12-20T07:51:28.815Z,1.70
2022-12-20T07:54:03.534Z,1.60
2022-12-20T07:56:40.713Z,1.50
2022-12-20T07:59:09.299Z,5.77
2022-12-20T08:01:36.413Z,5.00
2022-12-20T08:04:08.745Z,1.40
2022-12-20T08:06:37.657Z,1.50
2022-12-20T08:09:05.912Z,1.30
2022-12-20T08:11:35.221Z,1.77
2022-12-20T08:14:02.297Z,1.30
2022-12-20T08:16:29.085Z,1.53
2022-12-20T08:18:56.067Z,1.30
2022-12-20T08:21:22.803Z,1.83
2022-12-20T08:23:49.542Z,1.40
2022-12-20T08:26:16.426Z,1.40
2022-12-20T08:28:43.129Z,1.33
2022-12-20T08:31:10.726Z,2.13
2022-12-20T08:33:38.466Z,7.10
2022-12-20T08:36:09.808Z,1.27
2022-12-20T08:38:36.801Z,1.30
2022-12-20T08:41:12.160Z,1.30
2022-12-20T08:43:39.877Z,1.80
2022-12-20T08:46:08.175Z,1.97
2022-12-20T08:48:35.082Z,1.40
2022-12-20T08:51:08.250Z,1.20
2022-12-20T08:53:36.206Z,1.40
2022-12-20T08:56:15.085Z,1.30
2022-12-20T08:58:42.992Z,2.30
2022-12-20T09:01:12.514Z,24.30
2022-12-20T09:03:40.475Z,3.93
2022-12-20T09:06:10.388Z,0.80
2022-12-20T09:08:38.772Z,1.30
2022-12-20T09:11:08.714Z,1.03
2022-12-20T09:13:43.175Z,1.47
2022-12-20T09:16:11.958Z,1.40
2022-12-20T09:18:38.813Z,0.93
2022-12-20T09:21:07.420Z,1.60
2022-12-20T09:23:35.560Z,1.00
2022-12-20T09:26:04.124Z,1.23
2022-12-20T09:28:31.809Z,1.70
2022-12-20T09:31:04.053Z,1.63
2022-12-20T09:33:32.153Z,3.90
2022-12-20T09:36:00.656Z,2.00
2022-12-20T09:38:28.983Z,1.30
2022-12-20T09:41:01.021Z,1.50
2022-12-20T09:43:28.400Z,1.50
2022-12-20T09:45:58.509Z,1.47
2022-12-20T09:48:35.595Z,5.37
2022-12-20T09:51:11.446Z,14.47
2022-12-20T09:53:56.833Z,2.30
2022-12-20T09:56:44.879Z,1.63
2022-12-20T09:59:14.877Z,0.93
2022-12-20T10:01:47.099Z,1.37
2022-12-20T10:04:33.880Z,1.17
2022-12-20T10:07:16.867Z,1.30
2022-12-20T10:10:03.799Z,1.13
2022-12-20T10:12:46.315Z,1.10
2022-12-20T10:15:47.585Z,1.67
2022-12-20T10:18:38.344Z,1.87
2022-12-20T10:21:15.603Z,1.07
2022-12-20T10:24:03.811Z,1.40
2022-12-20T10:26:33.004Z,1.20
2022-12-20T10:29:00.064Z,1.57
2022-12-20T10:31:27.886Z,1.77
2022-12-20T10:33:55.806Z,1.47
2022-12-20T10:36:27.309Z,1.90
2022-12-20T10:39:05.901Z,1.70
2022-12-20T10:41:44.701Z,1.70
2022-12-20T10:44:26.424Z,1.90
2022-12-20T10:46:55.945Z,7.97
2022-12-20T10:49:41.069Z,2.53
2022-12-20T10:52:07.890Z,1.60
2022-12-20T10:54:55.356Z,1.10
2022-12-20T10:57:28.978Z,1.27
2022-12-20T11:00:01.346Z,1.10
2022-12-20T11:02:40.684Z,1.47
2022-12-20T11:05:11.944Z,1.30
2022-12-20T11:10:45.144Z,1.53
2022-12-20T11:13:30.552Z,1.47
2022-12-20T11:16:01.496Z,2.10
2022-12-20T11:18:51.207Z,2.63
2022-12-20T11:21:29.379Z,13.57
2022-12-20T11:24:12.253Z,2.73
2022-12-20T11:27:03.411Z,1.70
2022-12-20T11:29:45.625Z,1.60
2022-12-20T11:32:38.798Z,1.90
2022-12-20T11:35:07.806Z,1.77
2022-12-20T11:38:07.263Z,1.50
2022-12-20T11:41:11.741Z,1.50
2022-12-20T11:47:30.509Z,4.00
2022-12-20T11:50:22.575Z,1.47
2022-12-20T11:52:58.679Z,1.90
2022-12-20T11:55:30.635Z,1.53
2022-12-20T11:58:21.078Z,1.43
2022-12-20T12:01:05.480Z,1.33
2022-12-20T12:03:39.950Z,2.33
2022-12-20T12:06:27.230Z,1.40
2022-12-20T12:09:17.423Z,1.43
2022-12-20T12:12:09.882Z,1.40
2022-12-20T12:15:08.734Z,1.33
2022-12-20T12:17:47.557Z,26.50
2022-12-20T12:20:50.255Z,2.77
2022-12-20T12:23:26.850Z,1.77
2022-12-20T12:25:54.258Z,2.00
2022-12-20T12:28:23.639Z,2.20
2022-12-20T12:30:59.863Z,2.33
2022-12-20T12:33:38.904Z,2.33
2022-12-20T12:36:39.959Z,2.20
2022-12-20T12:39:20.037Z,2.20
2022-12-20T12:42:20.306Z,2.00
2022-12-20T12:45:03.942Z,3.13
2022-12-20T12:47:33.419Z,6.20
2022-12-20T12:50:00.696Z,2.47
2022-12-20T12:52:43.442Z,1.90
2022-12-20T12:55:44.143Z,1.67
2022-12-20T12:58:23.302Z,2.50
2022-12-20T13:00:56.228Z,2.77
2022-12-20T13:04:01.247Z,9.67
2022-12-20T13:06:30.800Z,3.13
2022-12-20T13:09:00.407Z,3.00
2022-12-20T13:11:39.180Z,3.20
2022-12-20T13:14:12.830Z,2.70
2022-12-20T13:17:10.885Z,3.00
2022-12-20T13:19:29.629Z,3.13
2022-12-20T13:21:57.853Z,3.00
2022-12-20T13:24:50.587Z,3.80
2022-12-20T13:27:34.177Z,3.60
2022-12-20T13:30:10.482Z,3.97
2022-12-20T13:32:56.138Z,4.80
2022-12-20T13:35:25.917Z,4.23
2022-12-20T13:38:07.661Z,5.00
2022-12-20T13:40:52.673Z,3.70
2022-12-20T13:43:22.164Z,4.70
2022-12-20T13:46:11.346Z,11.03
2022-12-20T13:48:38.113Z,5.03
2022-12-20T13:51:07.824Z,4.47
2022-12-20T13:53:35.032Z,4.10
2022-12-20T13:56:26.798Z,4.60
2022-12-20T13:58:59.456Z,4.60
2022-12-20T14:01:26.840Z,3.70
2022-12-20T14:03:54.301Z,4.10
2022-12-20T14:06:26.763Z,3.93
2022-12-20T14:08:54.472Z,4.13
2022-12-20T14:11:23.996Z,5.30
2022-12-20T14:14:01.058Z,5.90
2022-12-20T14:16:30.873Z,5.50
2022-12-20T14:18:57.546Z,5.20
2022-12-20T14:21:25.928Z,4.80
2022-12-20T14:23:55.472Z,4.50
2022-12-20T14:26:28.536Z,4.30
2022-12-20T14:28:57.980Z,4.00
2022-12-20T14:31:33.647Z,4.40
2022-12-20T14:34:10.944Z,4.90
2022-12-20T14:36:39.447Z,4.33
2022-12-20T14:39:29.673Z,4.10
2022-12-20T14:42:03.586Z,3.20
2022-12-20T14:44:31.789Z,3.87
2022-12-20T14:47:13.494Z,3.50
2022-12-20T14:49:40.828Z,3.30
2022-12-20T14:52:20.722Z,3.60
2022-12-20T14:55:07.756Z,4.47
2022-12-20T14:57:35.275Z,2.90
2022-12-20T15:00:14.012Z,3.97
2022-12-20T15:02:46.612Z,3.23
2022-12-20T15:05:35.313Z,3.20
2022-12-20T15:08:20.029Z,3.77
2022-12-20T15:11:10.789Z,3.77
2022-12-20T15:13:39.309Z,3.87
2022-12-20T15:16:18.498Z,3.40
2022-12-20T15:18:46.367Z,4.00
2022-12-20T15:21:15.373Z,3.50
2022-12-20T15:23:47.319Z,3.83
2022-12-20T15:26:18.866Z,4.03
2022-12-20T15:28:46.499Z,3.67
2022-12-20T15:31:15.155Z,4.00
2022-12-20T15:33:43.093Z,4.87
2022-12-20T15:36:22.008Z,4.77
2022-12-20T15:41:36.905Z,5.57
2022-12-20T15:44:06.895Z,4.83
2022-12-20T15:46:33.860Z,4.60
2022-12-20T15:49:00.703Z,5.00
2022-12-20T15:51:35.953Z,4.00
2022-12-20T15:54:05.262Z,4.10
2022-12-20T15:56:32.090Z,3.97
2022-12-20T15:58:58.807Z,8.53
2022-12-20T16:01:40.462Z,3.73
2022-12-20T16:04:13.661Z,3.23
2022-12-20T16:06:40.543Z,3.40
2022-12-20T16:09:07.263Z,4.00
2022-12-20T16:11:33.987Z,3.40
2022-12-20T16:14:00.778Z,3.47
2022-12-20T16:16:33.531Z,3.50
2022-12-20T16:19:01.429Z,4.03
2022-12-20T16:21:32.457Z,3.90
2022-12-20T16:23:59.435Z,2.97
2022-12-20T16:26:26.910Z,3.37
2022-12-20T16:28:55.493Z,3.70
2022-12-20T16:31:31.108Z,3.83
2022-12-20T16:33:59.644Z,2.97
2022-12-20T16:36:26.730Z,3.97
2022-12-20T16:38:56.505Z,4.13
2022-12-20T16:41:27.479Z,3.80
2022-12-20T16:43:56.011Z,3.40
2022-12-20T16:46:27.197Z,3.10
2022-12-20T16:48:55.311Z,3.50
2022-12-20T16:51:26.781Z,3.50
2022-12-20T16:56:44.426Z,3.70
2022-12-20T16:59:21.360Z,3.40
2022-12-20T17:01:52.307Z,3.60
2022-12-20T17:04:20.329Z,3.73
2022-12-20T17:06:47.397Z,4.40
2022-12-20T17:09:16.303Z,5.70
2022-12-20T17:11:43.438Z,3.80
2022-12-20T17:14:13.121Z,3.60
2022-12-20T17:16:41.189Z,3.83
2022-12-20T17:19:09.161Z,3.47
2022-12-20T17:24:22.503Z,4.10
2022-12-20T17:26:49.595Z,3.63
2022-12-20T17:29:17.862Z,3.90
2022-12-20T17:31:46.699Z,5.43
2022-12-20T17:34:18.972Z,3.97
2022-12-20T17:36:46.986Z,4.40
2022-12-20T17:39:13.898Z,5.17
2022-12-20T17:41:42.689Z,4.83
2022-12-20T17:44:18.534Z,4.50
2022-12-20T17:46:45.720Z,4.73
2022-12-20T17:49:12.697Z,4.90
2022-12-20T17:51:39.722Z,7.60
2022-12-20T17:54:06.865Z,6.47
2022-12-20T17:56:36.822Z,6.00
2022-12-20T17:59:07.226Z,6.50
2022-12-20T18:01:35.772Z,5.70
2022-12-20T18:04:06.854Z,5.80
2022-12-20T18:06:35.344Z,6.60
2022-12-20T18:09:02.006Z,6.17
2022-12-20T18:11:29.001Z,6.80
2022-12-20T18:13:58.433Z,8.43
2022-12-20T18:16:31.733Z,6.63
2022-12-20T18:18:58.704Z,7.47
2022-12-20T18:21:26.648Z,6.47
2022-12-20T18:23:54.555Z,6.30
2022-12-20T18:26:26.197Z,9.27
2022-12-20T18:29:02.853Z,7.87
2022-12-20T18:31:32.422Z,7.80
2022-12-20T18:34:00.236Z,8.83
2022-12-20T18:36:29.272Z,8.73
2022-12-20T18:38:58.551Z,9.70
2022-12-20T18:41:28.155Z,11.60
2022-12-20T18:43:58.932Z,10.40
2022-12-20T18:46:26.364Z,8.30
2022-12-20T18:48:55.367Z,10.73
2022-12-20T18:51:26.228Z,9.50
2022-12-20T18:53:55.849Z,9.83
2022-12-20T18:56:26.180Z,8.60
2022-12-20T18:58:53.231Z,9.17
2022-12-20T19:01:22.974Z,10.73
2022-12-20T19:03:51.339Z,9.20
2022-12-20T19:06:19.478Z,9.10
2022-12-20T19:08:46.441Z,8.70
2022-12-20T19:11:20.858Z,7.47
2022-12-20T19:13:47.989Z,8.00
2022-12-20T19:16:20.811Z,8.10
2022-12-20T19:18:48.118Z,8.87
2022-12-20T19:21:21.739Z,8.00
2022-12-20T19:23:51.411Z,7.60
2022-12-20T19:26:21.881Z,7.57
2022-12-20T19:28:49.213Z,7.80
2022-12-20T19:31:23.835Z,7.53
2022-12-20T19:33:53.224Z,6.93
2022-12-20T19:36:21.193Z,8.97
2022-12-20T19:38:52.893Z,6.67
2022-12-20T19:41:19.964Z,8.03
2022-12-20T19:43:47.950Z,6.33
2022-12-20T19:46:15.480Z,7.73
2022-12-20T19:48:42.291Z,7.53
2022-12-20T19:51:14.113Z,6.67
2022-12-20T19:53:43.244Z,6.60
2022-12-20T19:56:11.242Z,7.30
2022-12-20T19:58:38.706Z,6.90
2022-12-20T20:01:07.164Z,5.90
2022-12-20T20:03:35.061Z,7.10
2022-12-20T20:06:02.174Z,6.70
2022-12-20T20:08:29.014Z,7.23
2022-12-20T20:10:57.775Z,6.60
2022-12-20T20:13:25.232Z,6.93
2022-12-20T20:16:03.123Z,7.30
2022-12-20T20:18:32.535Z,6.83
2022-12-20T20:20:59.215Z,7.10
2022-12-20T20:23:27.301Z,8.07
2022-12-20T20:26:00.007Z,6.97
2022-12-20T20:28:31.897Z,8.80
2022-12-20T20:31:01.100Z,7.63
2022-12-20T20:33:28.039Z,7.57
2022-12-20T20:35:56.394Z,7.60
2022-12-20T20:38:23.703Z,7.20
2022-12-20T20:40:50.804Z,8.00
2022-12-20T20:43:18.413Z,7.87
2022-12-20T20:45:45.318Z,8.23
2022-12-20T20:48:12.165Z,8.00
2022-12-20T20:50:38.931Z,8.73
2022-12-20T20:53:07.145Z,8.13
2022-12-20T20:55:36.781Z,8.30
2022-12-20T20:58:03.728Z,7.90
2022-12-20T21:00:31.948Z,8.40
2022-12-20T21:02:59.772Z,7.93
2022-12-20T21:08:15.565Z,10.17
2022-12-20T21:10:43.089Z,9.27
2022-12-20T21:13:09.919Z,8.07
2022-12-20T21:15:36.965Z,9.60
2022-12-20T21:18:03.788Z,9.43
2022-12-20T21:20:30.654Z,9.50
2022-12-20T21:22:58.294Z,9.33
2022-12-20T21:25:24.997Z,9.40
2022-12-20T21:27:51.696Z,9.13
2022-12-20T21:30:18.452Z,8.43
2022-12-20T21:32:45.881Z,9.50
2022-12-20T21:35:12.661Z,10.40
2022-12-20T21:37:39.403Z,9.90
2022-12-20T21:40:06.967Z,9.50
2022-12-20T21:42:33.694Z,9.97
2022-12-20T21:45:00.537Z,10.23
2022-12-20T21:47:27.358Z,9.20
2022-12-20T21:49:54.052Z,10.13
2022-12-20T21:52:20.794Z,10.60
2022-12-20T21:54:47.505Z,10.27
2022-12-20T21:57:14.247Z,10.00
2022-12-20T21:59:40.973Z,10.03
2022-12-20T22:02:09.899Z,10.47
2022-12-20T22:04:36.876Z,10.27
2022-12-20T22:07:03.599Z,10.30
2022-12-20T22:09:30.324Z,10.73
2022-12-20T22:11:57.084Z,10.80
2022-12-20T22:14:23.814Z,10.30
2022-12-20T22:16:50.568Z,10.83
2022-12-20T22:19:17.996Z,10.53
2022-12-20T22:21:44.765Z,10.77
2022-12-20T22:24:11.575Z,10.70
2022-12-20T22:26:41.025Z,11.13
2022-12-20T22:29:08.585Z,11.97
2022-12-20T22:31:36.548Z,11.87
2022-12-20T22:34:04.065Z,11.70
2022-12-20T22:36:31.030Z,11.60
2022-12-20T22:38:58.535Z,12.20
2022-12-20T22:41:27.278Z,12.30
2022-12-20T22:43:54.401Z,11.80
2022-12-20T22:46:21.293Z,13.30
2022-12-20T22:48:48.093Z,12.00
2022-12-20T22:51:20.310Z,12.10
2022-12-20T22:53:48.363Z,13.67
2022-12-20T22:56:17.284Z,12.67
2022-12-20T22:58:44.616Z,13.37
2022-12-20T23:01:14.528Z,13.40
2022-12-20T23:03:42.344Z,15.50
2022-12-20T23:06:15.196Z,13.13
2022-12-20T23:08:42.335Z,12.33
2022-12-20T23:11:38.332Z,12.20
2022-12-20T23:14:23.933Z,12.83
2022-12-20T23:16:50.869Z,12.80
2022-12-20T23:19:17.726Z,12.70
2022-12-20T23:22:22.752Z,12.77
2022-12-20T23:24:49.462Z,12.17
2022-12-20T23:27:16.143Z,12.10
2022-12-20T23:29:42.839Z,12.47
2022-12-20T23:32:09.648Z,13.97
2022-12-20T23:34:36.327Z,12.63
2022-12-20T23:37:03.023Z,11.97
2022-12-20T23:39:29.745Z,13.70
2022-12-20T23:41:56.406Z,12.47
2022-12-20T23:44:23.210Z,13.40
2022-12-20T23:46:49.968Z,12.90
2022-12-20T23:49:16.730Z,14.00
2022-12-20T23:51:43.445Z,14.23
2022-12-20T23:54:11.074Z,13.10
2022-12-20T23:56:37.863Z,14.83
2022-12-20T23:59:04.567Z,15.00
